createdAt,value
2022-10-12T00:02:20.371Z,33.67
2022-10-12T00:04:47.949Z,32.43
2022-10-12T00:07:15.473Z,31.73
2022-10-12T00:09:43.354Z,32.97
2022-10-12T00:12:10.916Z,32.40
2022-10-12T00:14:38.961Z,32.57
2022-10-12T00:17:06.514Z,32.57
2022-10-12T00:19:35.398Z,32.93
2022-10-12T00:22:03.005Z,34.03
2022-10-12T00:24:30.557Z,33.20
2022-10-12T00:26:58.103Z,33.40
2022-10-12T00:29:25.857Z,32.23
2022-10-12T00:31:53.406Z,32.53
2022-10-12T00:34:21.050Z,32.63
2022-10-12T00:36:49.933Z,31.50
2022-10-12T00:39:17.557Z,32.77
2022-10-12T00:41:45.486Z,34.10
2022-10-12T00:44:35.966Z,32.50
2022-10-12T00:47:08.717Z,33.23
2022-10-12T00:49:36.957Z,32.60
2022-10-12T00:52:09.929Z,33.63
2022-10-12T00:54:43.727Z,34.23
2022-10-12T00:57:14.779Z,33.33
2022-10-12T00:59:46.991Z,33.10
2022-10-12T01:02:14.970Z,32.60
2022-10-12T01:04:42.701Z,33.00
2022-10-12T01:07:11.855Z,32.03
2022-10-12T01:09:39.387Z,32.40
2022-10-12T01:12:09.088Z,32.90
2022-10-12T01:14:37.215Z,34.00
2022-10-12T01:17:14.870Z,32.50
2022-10-12T01:20:01.453Z,31.00
2022-10-12T01:22:36.306Z,31.77
2022-10-12T01:25:18.338Z,32.40
2022-10-12T01:27:50.446Z,31.73
2022-10-12T01:30:22.894Z,32.80
2022-10-12T01:33:07.566Z,31.87
2022-10-12T01:35:42.946Z,34.07
2022-10-12T01:38:21.826Z,34.80
2022-10-12T01:41:00.857Z,34.93
2022-10-12T01:43:34.977Z,34.87
2022-10-12T01:46:42.061Z,36.53
2022-10-12T01:49:12.305Z,35.83
2022-10-12T01:52:12.446Z,38.03
2022-10-12T01:54:53.117Z,37.47
2022-10-12T01:57:26.134Z,37.17
2022-10-12T02:00:03.717Z,36.67
2022-10-12T02:02:38.833Z,36.67
2022-10-12T02:05:15.865Z,35.43
2022-10-12T02:07:48.639Z,35.73
2022-10-12T02:10:22.017Z,34.23
2022-10-12T02:12:50.815Z,33.63
2022-10-12T02:15:19.319Z,33.90
2022-10-12T02:17:51.051Z,34.80
2022-10-12T02:20:21.842Z,37.57
2022-10-12T02:22:52.196Z,37.93
2022-10-12T02:25:23.001Z,37.10
2022-10-12T02:27:56.363Z,39.20
2022-10-12T02:30:24.041Z,36.83
2022-10-12T02:32:56.718Z,34.80
2022-10-12T02:35:32.746Z,35.60
2022-10-12T02:38:06.429Z,35.20
2022-10-12T02:40:38.551Z,35.30
2022-10-12T02:43:11.562Z,34.43
2022-10-12T02:45:41.959Z,37.57
2022-10-12T02:48:12.731Z,36.43
2022-10-12T02:50:41.755Z,35.97
2022-10-12T02:53:09.957Z,35.77
2022-10-12T02:55:39.658Z,38.90
2022-10-12T02:58:07.250Z,36.00
2022-10-12T03:00:35.337Z,37.73
2022-10-12T03:03:02.866Z,38.97
2022-10-12T03:05:30.393Z,38.90
2022-10-12T03:07:59.260Z,38.10
2022-10-12T03:10:26.822Z,36.50
2022-10-12T03:12:55.687Z,37.77
2022-10-12T03:15:23.335Z,36.80
2022-10-12T03:17:51.134Z,35.73
2022-10-12T03:20:18.659Z,38.57
2022-10-12T03:22:46.548Z,37.17
2022-10-12T03:25:15.522Z,38.40
2022-10-12T03:27:43.214Z,39.60
2022-10-12T03:30:12.346Z,39.40
2022-10-12T03:32:40.770Z,37.73
2022-10-12T03:35:09.337Z,37.53
2022-10-12T03:37:37.200Z,39.87
2022-10-12T03:40:05.738Z,39.37
2022-10-12T03:42:34.615Z,39.20
2022-10-12T03:45:02.150Z,38.73
2022-10-12T03:47:29.662Z,39.00
2022-10-12T03:49:57.195Z,39.37
2022-10-12T03:52:24.841Z,39.10
2022-10-12T03:54:52.376Z,40.23
2022-10-12T03:57:19.938Z,38.50
2022-10-12T03:59:48.822Z,39.33
2022-10-12T04:02:17.303Z,38.70
2022-10-12T04:04:45.081Z,40.83
2022-10-12T04:07:12.663Z,39.67
2022-10-12T04:09:40.223Z,39.03
2022-10-12T04:12:07.931Z,39.13
2022-10-12T04:14:35.465Z,41.70
2022-10-12T04:17:05.002Z,38.47
2022-10-12T04:19:32.666Z,38.77
2022-10-12T04:22:00.203Z,37.97
2022-10-12T04:24:27.737Z,40.17
2022-10-12T04:26:55.251Z,38.03
2022-10-12T04:29:23.087Z,37.77
2022-10-12T04:31:50.637Z,39.30
2022-10-12T04:34:20.586Z,37.77
2022-10-12T04:36:48.106Z,36.30
2022-10-12T04:39:15.641Z,36.57
2022-10-12T04:41:43.522Z,39.43
2022-10-12T04:44:11.371Z,38.43
2022-10-12T04:46:38.880Z,36.90
2022-10-12T04:49:06.502Z,38.63
2022-10-12T04:51:35.429Z,36.37
2022-10-12T04:54:03.046Z,38.20
2022-10-12T04:56:30.602Z,39.83
2022-10-12T04:58:58.157Z,39.87
2022-10-12T05:01:25.737Z,38.00
2022-10-12T05:03:53.323Z,37.33
2022-10-12T05:06:20.835Z,38.33
2022-10-12T05:08:49.728Z,38.13
2022-10-12T05:11:17.306Z,38.40
2022-10-12T05:13:44.843Z,38.90
2022-10-12T05:16:12.396Z,39.40
2022-10-12T05:18:39.917Z,38.37
2022-10-12T05:21:07.450Z,42.13
2022-10-12T05:23:34.982Z,39.17
2022-10-12T05:26:04.320Z,38.93
2022-10-12T05:28:35.837Z,38.30
2022-10-12T05:31:06.154Z,39.77
2022-10-12T05:33:33.678Z,36.83
2022-10-12T05:36:01.209Z,42.73
2022-10-12T05:38:29.018Z,40.50
2022-10-12T05:41:00.528Z,40.90
2022-10-12T05:43:30.068Z,39.20
2022-10-12T05:45:57.761Z,40.90
2022-10-12T05:48:25.901Z,39.50
2022-10-12T05:50:54.174Z,40.20
2022-10-12T05:53:21.961Z,40.00
2022-10-12T05:55:54.539Z,39.07
2022-10-12T05:58:22.353Z,39.60
2022-10-12T06:00:51.880Z,40.73
2022-10-12T06:03:24.067Z,39.77
2022-10-12T06:05:53.403Z,39.10
2022-10-12T06:08:20.948Z,38.90
2022-10-12T06:10:51.958Z,40.13
2022-10-12T06:13:19.711Z,37.40
2022-10-12T06:15:48.228Z,37.50
2022-10-12T06:18:18.144Z,37.90
2022-10-12T06:20:48.609Z,37.93
2022-10-12T06:23:17.015Z,36.90
2022-10-12T06:25:47.008Z,37.13
2022-10-12T06:28:14.720Z,39.30
2022-10-12T06:30:42.462Z,36.67
2022-10-12T06:33:10.030Z,38.17
2022-10-12T06:35:39.282Z,37.17
2022-10-12T06:38:06.853Z,36.77
2022-10-12T06:40:34.399Z,36.17
2022-10-12T06:43:02.795Z,36.97
2022-10-12T06:45:30.885Z,36.40
2022-10-12T06:47:59.070Z,35.67
2022-10-12T06:50:27.378Z,37.77
2022-10-12T06:52:56.407Z,42.03
2022-10-12T06:55:26.982Z,38.93
2022-10-12T06:57:55.967Z,37.50
2022-10-12T07:00:23.854Z,38.47
2022-10-12T07:02:54.674Z,37.30
2022-10-12T07:05:22.426Z,36.90
2022-10-12T07:07:49.983Z,36.37
2022-10-12T07:10:19.225Z,36.90
2022-10-12T07:12:46.814Z,36.00
2022-10-12T07:15:14.386Z,36.27
2022-10-12T07:17:41.911Z,35.97
2022-10-12T07:20:09.842Z,36.13
2022-10-12T07:22:37.426Z,35.83
2022-10-12T07:25:05.617Z,35.87
2022-10-12T07:27:34.555Z,36.67
2022-10-12T07:30:02.162Z,36.10
2022-10-12T07:32:29.702Z,37.43
2022-10-12T07:34:57.254Z,36.80
2022-10-12T07:37:25.206Z,37.60
2022-10-12T07:39:57.033Z,37.20
2022-10-12T07:42:25.062Z,37.47
2022-10-12T07:44:53.954Z,40.10
2022-10-12T07:47:21.570Z,39.00
2022-10-12T07:49:49.105Z,38.73
2022-10-12T07:52:16.633Z,38.23
2022-10-12T07:54:44.190Z,39.77
2022-10-12T07:57:11.753Z,36.77
2022-10-12T07:59:39.376Z,38.27
2022-10-12T08:02:08.278Z,36.83
2022-10-12T08:04:35.866Z,38.50
2022-10-12T08:07:03.403Z,40.63
2022-10-12T08:09:30.921Z,38.63
2022-10-12T08:11:58.486Z,38.67
2022-10-12T08:14:26.358Z,37.00
2022-10-12T08:16:53.995Z,38.40
2022-10-12T08:19:22.883Z,38.70
2022-10-12T08:21:50.557Z,40.47
2022-10-12T08:24:18.110Z,38.23
2022-10-12T08:26:45.653Z,39.27
2022-10-12T08:29:13.199Z,40.77
2022-10-12T08:31:40.974Z,39.03
2022-10-12T08:34:08.568Z,39.40
2022-10-12T08:36:37.963Z,39.70
2022-10-12T08:39:06.823Z,38.27
2022-10-12T08:41:47.608Z,38.90
2022-10-12T08:44:39.640Z,38.87
2022-10-12T08:47:13.299Z,41.00
2022-10-12T08:49:45.155Z,38.83
2022-10-12T08:52:28.107Z,39.53
2022-10-12T08:55:01.581Z,36.83
2022-10-12T08:57:29.304Z,39.27
2022-10-12T08:59:56.879Z,41.43
2022-10-12T09:02:39.553Z,37.20
2022-10-12T09:05:10.639Z,39.03
2022-10-12T09:07:43.257Z,37.50
2022-10-12T09:10:27.743Z,35.47
2022-10-12T09:13:06.402Z,36.23
2022-10-12T09:15:38.947Z,35.80
2022-10-12T09:18:16.141Z,34.90
2022-10-12T09:20:48.347Z,36.30
2022-10-12T09:23:25.162Z,35.80
2022-10-12T09:25:55.843Z,34.17
2022-10-12T09:28:28.683Z,34.13
2022-10-12T09:31:12.214Z,34.10
2022-10-12T09:33:45.309Z,34.90
2022-10-12T09:36:18.529Z,33.90
2022-10-12T09:38:47.932Z,31.93
2022-10-12T09:41:21.708Z,33.67
2022-10-12T09:43:52.091Z,32.60
2022-10-12T09:46:28.414Z,32.83
2022-10-12T09:48:58.557Z,32.57
2022-10-12T09:51:26.464Z,32.10
2022-10-12T09:53:58.708Z,31.50
2022-10-12T09:56:30.611Z,30.90
2022-10-12T09:59:03.017Z,29.87
2022-10-12T10:01:33.354Z,28.33
2022-10-12T10:04:14.554Z,27.97
2022-10-12T10:06:44.549Z,27.63
2022-10-12T10:09:30.399Z,26.03
2022-10-12T10:11:58.702Z,24.97
2022-10-12T10:14:26.822Z,23.67
2022-10-12T10:16:55.573Z,21.00
2022-10-12T10:19:26.406Z,20.20
2022-10-12T10:21:55.126Z,19.87
2022-10-12T10:24:29.642Z,18.80
2022-10-12T10:26:59.569Z,16.43
2022-10-12T10:29:34.256Z,14.83
2022-10-12T10:32:12.985Z,16.37
2022-10-12T10:34:42.449Z,15.40
2022-10-12T10:37:18.941Z,15.43
2022-10-12T10:39:50.660Z,16.10
2022-10-12T10:42:21.425Z,18.33
2022-10-12T10:44:52.265Z,15.53
2022-10-12T10:47:20.274Z,17.30
2022-10-12T10:49:50.931Z,16.00
2022-10-12T10:52:24.551Z,15.77
2022-10-12T10:55:15.900Z,17.10
2022-10-12T10:57:48.377Z,19.57
2022-10-12T11:00:38.600Z,16.07
2022-10-12T11:03:13.908Z,13.90
2022-10-12T11:05:46.412Z,15.20
2022-10-12T11:08:18.358Z,15.50
2022-10-12T11:10:51.917Z,13.50
2022-10-12T11:13:23.912Z,12.30
2022-10-12T11:15:57.306Z,18.23
2022-10-12T11:18:31.749Z,11.43
2022-10-12T11:21:03.346Z,10.03
2022-10-12T11:23:39.143Z,10.70
2022-10-12T11:26:19.451Z,10.80
2022-10-12T11:28:47.325Z,10.73
2022-10-12T11:31:21.146Z,11.70
2022-10-12T11:33:50.518Z,9.80
2022-10-12T11:36:22.567Z,9.63
2022-10-12T11:38:53.794Z,15.60
2022-10-12T11:41:35.489Z,11.87
2022-10-12T11:44:08.448Z,10.23
2022-10-12T11:46:41.167Z,9.30
2022-10-12T11:49:15.533Z,10.23
2022-10-12T11:51:47.906Z,9.20
2022-10-12T11:54:24.749Z,8.80
2022-10-12T11:56:57.266Z,10.80
2022-10-12T11:59:30.585Z,8.00
2022-10-12T12:02:09.830Z,11.67
2022-10-12T12:04:43.369Z,11.47
2022-10-12T12:07:44.272Z,7.40
2022-10-12T12:11:04.213Z,11.30
2022-10-12T12:13:33.566Z,8.37
2022-10-12T12:16:27.353Z,9.10
2022-10-12T12:19:18.679Z,6.70
2022-10-12T12:22:17.155Z,8.70
2022-10-12T12:24:54.930Z,11.20
2022-10-12T12:27:29.980Z,6.77
2022-10-12T12:30:00.360Z,7.50
2022-10-12T12:32:42.731Z,8.70
2022-10-12T12:35:21.179Z,8.30
2022-10-12T12:37:50.042Z,9.80
2022-10-12T12:40:23.784Z,9.20
2022-10-12T12:42:51.683Z,8.27
2022-10-12T12:45:42.020Z,8.70
2022-10-12T12:48:11.407Z,7.37
2022-10-12T12:50:41.615Z,9.03
2022-10-12T12:53:15.922Z,9.20
2022-10-12T12:56:05.922Z,11.63
2022-10-12T12:58:58.477Z,10.33
2022-10-12T13:01:45.569Z,9.83
2022-10-12T13:04:43.139Z,6.37
2022-10-12T13:07:34.894Z,7.67
2022-10-12T13:10:23.655Z,9.00
2022-10-12T13:13:10.751Z,7.20
2022-10-12T13:16:11.705Z,8.90
2022-10-12T13:18:49.549Z,16.27
2022-10-12T13:21:20.302Z,8.13
2022-10-12T13:23:50.161Z,11.20
2022-10-12T13:26:23.622Z,7.60
2022-10-12T13:28:53.051Z,8.37
2022-10-12T13:31:26.130Z,8.93
2022-10-12T13:34:00.836Z,7.13
2022-10-12T13:36:30.863Z,9.63
2022-10-12T13:39:00.798Z,6.37
2022-10-12T13:41:31.206Z,6.60
2022-10-12T13:44:00.284Z,6.80
2022-10-12T13:46:38.177Z,12.73
2022-10-12T13:49:17.062Z,6.60
2022-10-12T13:51:47.092Z,7.10
2022-10-12T13:54:17.240Z,9.80
2022-10-12T13:56:46.303Z,8.87
2022-10-12T13:59:19.087Z,8.10
2022-10-12T14:01:54.966Z,6.37
2022-10-12T14:04:27.850Z,12.23
2022-10-12T14:07:00.905Z,8.20
2022-10-12T14:09:31.715Z,6.50
2022-10-12T14:11:59.371Z,9.50
2022-10-12T14:14:32.046Z,7.07
2022-10-12T14:16:59.875Z,8.77
2022-10-12T14:19:44.730Z,7.20
2022-10-12T14:22:13.560Z,9.03
2022-10-12T14:24:41.301Z,7.40
2022-10-12T14:27:09.753Z,11.27
2022-10-12T14:29:42.801Z,5.87
2022-10-12T14:32:37.538Z,5.63
2022-10-12T14:35:20.905Z,11.50
2022-10-12T14:37:49.182Z,6.33
2022-10-12T14:40:32.479Z,7.50
2022-10-12T14:43:03.352Z,7.77
2022-10-12T14:45:31.659Z,6.60
2022-10-12T14:48:00.043Z,9.47
2022-10-12T14:50:30.667Z,9.63
2022-10-12T14:53:01.337Z,10.60
2022-10-12T14:55:32.867Z,8.53
2022-10-12T14:58:00.709Z,6.00
2022-10-12T15:00:30.660Z,5.30
2022-10-12T15:02:58.870Z,5.27
2022-10-12T15:05:31.682Z,5.70
2022-10-12T15:07:59.798Z,8.97
2022-10-12T15:10:28.738Z,8.97
2022-10-12T15:12:56.330Z,7.23
2022-10-12T15:15:32.223Z,7.07
2022-10-12T15:18:00.376Z,7.90
2022-10-12T15:20:31.432Z,8.20
2022-10-12T15:22:59.886Z,13.07
2022-10-12T15:25:38.094Z,8.23
2022-10-12T15:28:05.845Z,6.60
2022-10-12T15:30:34.149Z,7.07
2022-10-12T15:33:01.722Z,7.57
2022-10-12T15:35:33.833Z,8.40
2022-10-12T15:38:01.538Z,10.27
2022-10-12T15:40:31.186Z,7.27
2022-10-12T15:42:58.787Z,10.80
2022-10-12T15:45:28.355Z,6.97
2022-10-12T15:47:56.080Z,9.30
2022-10-12T15:50:26.558Z,9.47
2022-10-12T15:52:55.949Z,7.20
2022-10-12T15:55:25.003Z,7.73
2022-10-12T15:57:53.431Z,9.47
2022-10-12T16:00:23.279Z,13.43
2022-10-12T16:02:50.803Z,7.00
2022-10-12T16:05:22.380Z,12.13
2022-10-12T16:07:50.094Z,10.80
2022-10-12T16:10:21.638Z,10.43
2022-10-12T16:12:51.293Z,19.00
2022-10-12T16:15:21.711Z,8.20
2022-10-12T16:17:49.402Z,8.57
2022-10-12T16:20:17.609Z,9.83
2022-10-12T16:22:46.015Z,9.23
2022-10-12T16:25:16.898Z,8.70
2022-10-12T16:27:45.938Z,11.10
2022-10-12T16:30:14.982Z,10.70
2022-10-12T16:32:42.635Z,12.97
2022-10-12T16:35:10.610Z,10.57
2022-10-12T16:37:38.233Z,14.70
2022-10-12T16:40:07.435Z,15.93
2022-10-12T16:42:35.536Z,29.07
2022-10-12T16:45:04.942Z,16.33
2022-10-12T16:47:32.507Z,13.80
2022-10-12T16:50:00.033Z,12.80
2022-10-12T16:52:27.630Z,10.60
2022-10-12T16:54:56.301Z,9.90
2022-10-12T16:57:24.838Z,14.23
2022-10-12T16:59:52.414Z,10.63
2022-10-12T17:02:22.318Z,10.07
2022-10-12T17:04:49.987Z,10.83
2022-10-12T17:07:17.994Z,8.77
2022-10-12T17:09:45.809Z,15.47
2022-10-12T17:12:13.784Z,9.47
2022-10-12T17:14:41.600Z,10.90
2022-10-12T17:17:09.640Z,13.70
2022-10-12T17:19:39.917Z,14.03
2022-10-12T17:22:09.226Z,14.40
2022-10-12T17:24:39.084Z,10.87
2022-10-12T17:27:08.730Z,11.57
2022-10-12T17:29:37.227Z,13.13
2022-10-12T17:32:05.417Z,15.13
2022-10-12T17:34:35.061Z,18.03
2022-10-12T17:37:05.310Z,16.20
2022-10-12T17:39:35.034Z,14.50
2022-10-12T17:42:02.647Z,12.20
2022-10-12T17:44:30.248Z,12.50
2022-10-12T17:46:58.754Z,10.67
2022-10-12T17:49:28.115Z,10.70
2022-10-12T17:51:55.967Z,10.73
2022-10-12T17:54:26.635Z,9.50
2022-10-12T17:56:55.224Z,9.93
2022-10-12T17:59:23.267Z,10.07
2022-10-12T18:01:51.770Z,14.83
2022-10-12T18:04:20.038Z,10.80
2022-10-12T18:06:47.820Z,11.70
2022-10-12T18:09:15.925Z,11.90
2022-10-12T18:11:45.267Z,14.07
2022-10-12T18:14:14.172Z,11.27
2022-10-12T18:16:42.311Z,10.33
2022-10-12T18:19:11.497Z,11.60
2022-10-12T18:21:39.984Z,11.27
2022-10-12T18:24:16.005Z,11.10
2022-10-12T18:26:46.931Z,19.40
2022-10-12T18:29:14.507Z,11.10
2022-10-12T18:31:42.910Z,10.80
2022-10-12T18:34:10.528Z,11.30
2022-10-12T18:36:38.482Z,11.03
2022-10-12T18:39:06.068Z,11.30
2022-10-12T18:41:34.106Z,14.53
2022-10-12T18:44:03.617Z,13.77
2022-10-12T18:46:32.976Z,12.17
2022-10-12T18:49:02.605Z,12.37
2022-10-12T18:51:31.821Z,12.30
2022-10-12T18:54:01.194Z,12.10
2022-10-12T18:56:29.749Z,11.90
2022-10-12T18:58:59.565Z,11.30
2022-10-12T19:01:30.297Z,12.33
2022-10-12T19:04:00.366Z,12.80
2022-10-12T19:06:30.573Z,12.40
2022-10-12T19:08:59.774Z,12.70
2022-10-12T19:11:29.269Z,12.80
2022-10-12T19:13:58.593Z,20.57
2022-10-12T19:16:28.087Z,12.43
2022-10-12T19:18:57.469Z,15.23
2022-10-12T19:21:25.439Z,12.50
2022-10-12T19:23:55.701Z,12.90
2022-10-12T19:26:25.319Z,12.57
2022-10-12T19:28:55.123Z,13.90
2022-10-12T19:31:24.945Z,13.47
2022-10-12T19:33:55.450Z,14.17
2022-10-12T19:36:22.995Z,14.40
2022-10-12T19:38:50.726Z,14.07
2022-10-12T19:41:18.299Z,13.87
2022-10-12T19:43:46.576Z,13.97
2022-10-12T19:46:15.758Z,15.53
2022-10-12T19:48:43.394Z,14.93
2022-10-12T19:51:14.265Z,17.20
2022-10-12T19:53:42.593Z,15.40
2022-10-12T19:56:13.591Z,14.60
2022-10-12T19:58:41.582Z,17.17
2022-10-12T20:01:12.007Z,15.00
2022-10-12T20:03:44.058Z,15.97
2022-10-12T20:06:15.819Z,17.13
2022-10-12T20:08:45.282Z,16.13
2022-10-12T20:11:17.967Z,16.60
2022-10-12T20:13:47.108Z,17.43
2022-10-12T20:16:15.372Z,17.40
2022-10-12T20:18:43.207Z,17.63
2022-10-12T20:21:12.821Z,17.43
2022-10-12T20:23:43.609Z,18.03
2022-10-12T20:26:14.581Z,16.67
2022-10-12T20:28:42.164Z,18.63
2022-10-12T20:31:10.577Z,19.13
2022-10-12T20:33:39.635Z,17.33
2022-10-12T20:36:09.979Z,18.77
2022-10-12T20:38:38.398Z,21.13
2022-10-12T20:41:09.962Z,19.63
2022-10-12T20:43:39.630Z,20.33
2022-10-12T20:46:08.927Z,19.63
2022-10-12T20:48:38.345Z,20.70
2022-10-12T20:51:07.001Z,22.30
2022-10-12T20:53:35.079Z,22.43
2022-10-12T20:56:05.639Z,23.20
2022-10-12T20:58:34.787Z,25.37
2022-10-12T21:01:07.203Z,25.50
2022-10-12T21:03:35.542Z,23.87
2022-10-12T21:06:04.278Z,26.63
2022-10-12T21:08:31.821Z,26.43
2022-10-12T21:11:00.057Z,24.03
2022-10-12T21:13:30.451Z,24.33
2022-10-12T21:15:59.379Z,26.30
2022-10-12T21:18:26.941Z,24.80
2022-10-12T21:20:56.542Z,24.97
2022-10-12T21:23:24.164Z,25.80
2022-10-12T21:25:52.390Z,24.70
2022-10-12T21:28:20.756Z,25.47
2022-10-12T21:30:48.862Z,26.00
2022-10-12T21:33:19.123Z,25.43
2022-10-12T21:35:46.769Z,27.43
2022-10-12T21:38:14.667Z,28.13
2022-10-12T21:40:42.223Z,25.90
2022-10-12T21:43:09.768Z,25.53
2022-10-12T21:45:37.325Z,27.60
2022-10-12T21:48:05.130Z,27.73
2022-10-12T21:50:34.885Z,30.47
2022-10-12T21:53:02.643Z,28.73
2022-10-12T21:55:30.473Z,27.50
2022-10-12T21:57:57.989Z,27.33
2022-10-12T22:00:26.173Z,27.07
2022-10-12T22:02:53.737Z,26.73
2022-10-12T22:05:21.258Z,27.87
2022-10-12T22:07:50.151Z,26.40
2022-10-12T22:10:17.896Z,27.10
2022-10-12T22:12:45.441Z,28.10
2022-10-12T22:15:12.973Z,29.27
2022-10-12T22:17:40.518Z,28.97
2022-10-12T22:20:08.938Z,29.27
2022-10-12T22:22:36.466Z,28.30
2022-10-12T22:25:05.849Z,29.17
2022-10-12T22:27:33.407Z,29.30
2022-10-12T22:30:00.973Z,29.70
2022-10-12T22:32:28.705Z,30.43
2022-10-12T22:34:56.228Z,30.40
2022-10-12T22:37:23.884Z,31.43
2022-10-12T22:39:51.397Z,30.63
2022-10-12T22:42:20.581Z,31.53
2022-10-12T22:44:48.298Z,32.00
2022-10-12T22:47:15.817Z,32.00
2022-10-12T22:49:43.375Z,31.93
2022-10-12T22:52:11.262Z,33.70
2022-10-12T22:54:38.789Z,33.30
2022-10-12T22:57:06.389Z,32.97
2022-10-12T22:59:35.279Z,33.80
2022-10-12T23:02:02.806Z,33.87
2022-10-12T23:04:30.338Z,32.57
2022-10-12T23:06:57.878Z,32.07
2022-10-12T23:09:25.430Z,32.77
2022-10-12T23:11:54.013Z,33.17
2022-10-12T23:14:21.544Z,33.97
2022-10-12T23:16:50.498Z,34.57
2022-10-12T23:19:18.041Z,35.47
2022-10-12T23:21:47.230Z,34.60
2022-10-12T23:24:15.138Z,34.00
2022-10-12T23:26:42.742Z,34.40
2022-10-12T23:29:10.307Z,33.93
2022-10-12T23:31:38.174Z,33.83
2022-10-12T23:34:07.949Z,32.80
2022-10-12T23:36:35.588Z,33.00
2022-10-12T23:39:05.421Z,33.17
2022-10-12T23:41:33.096Z,33.70
2022-10-12T23:44:00.959Z,33.93
2022-10-12T23:46:28.631Z,32.43
2022-10-12T23:48:56.166Z,34.67
2022-10-12T23:51:25.250Z,33.40
2022-10-12T23:53:52.860Z,34.37
2022-10-12T23:56:20.758Z,33.50
2022-10-12T23:58:48.335Z,35.23
